Time;durP1;ratioP1;P1;durP2;ratioP2;P2;SDS_P1;SDS_P2;PMS_P1;PMS_P2;Temp;Humidity;BMP_temperature;BMP_pressure;BME280_temperature;BME280_humidity;BME280_pressure;Samples;Min_cycle;Max_cycle;Signal;HPM_P1;HPM_P2
2022/05/13 00:01:20;;;;;;;31.93;2.97;;;;;;;24.06;41.72;99511.06;7314021;19;130349;-40
2022/05/13 00:03:46;;;;;;;20.80;1.75;;;;;;;24.07;41.75;99520.59;7313439;19;155413;-40
2022/05/13 00:06:12;;;;;;;28.27;2.80;;;;;;;24.13;41.85;99522.56;7311800;19;129443;-41
2022/05/13 00:08:37;;;;;;;23.30;2.30;;;;;;;24.09;42.08;99512.53;7314267;19;129755;-41
2022/05/13 00:11:05;;;;;;;39.92;3.42;;;;;;;24.12;41.87;99528.81;7314504;19;129177;-41
2022/05/13 00:13:31;;;;;;;44.38;4.13;;;;;;;24.13;41.08;99532.28;7313594;19;131165;-38
2022/05/13 00:15:57;;;;;;;23.97;2.67;;;;;;;24.07;42.10;99525.84;7311110;19;129175;-40
2022/05/13 00:18:22;;;;;;;30.20;2.92;;;;;;;24.16;41.38;99524.06;7313290;19;129130;-40
2022/05/13 00:20:48;;;;;;;27.83;2.75;;;;;;;24.18;41.88;99528.19;7312464;19;159050;-41
2022/05/13 00:23:13;;;;;;;49.40;4.37;;;;;;;24.11;41.10;99510.59;7312439;19;154685;-41
2022/05/13 00:25:39;;;;;;;27.63;2.37;;;;;;;24.15;41.88;99523.25;7311418;19;154693;-41
2022/05/13 00:28:06;;;;;;;50.90;5.10;;;;;;;24.20;41.43;99526.22;7311965;19;129738;-40
2022/05/13 00:30:37;;;;;;;24.58;2.33;;;;;;;24.18;41.88;99530.00;7314876;19;131793;-41
2022/05/13 00:33:03;;;;;;;12.63;1.70;;;;;;;24.24;41.85;99521.47;7313041;19;129429;-41
2022/05/13 00:35:29;;;;;;;44.83;4.47;;;;;;;24.18;41.19;99516.88;7311488;19;129010;-40
2022/05/13 00:37:54;;;;;;;35.13;3.10;;;;;;;24.20;41.33;99514.88;7313851;19;129255;-38
2022/05/13 00:40:21;;;;;;;25.70;2.50;;;;;;;24.19;41.57;99516.72;7312110;19;159301;-37
2022/05/13 00:42:48;;;;;;;26.30;2.42;;;;;;;24.21;41.31;99512.09;7313218;19;129225;-41
2022/05/13 00:45:14;;;;;;;30.70;2.90;;;;;;;24.17;41.28;99499.44;7311001;19;129431;-39
2022/05/13 00:47:40;;;;;;;24.60;2.38;;;;;;;24.17;41.74;99502.06;7311991;19;130888;-39
2022/05/13 00:50:08;;;;;;;26.38;2.67;;;;;;;24.16;41.60;99503.06;7314740;19;129179;-41
2022/05/13 00:52:33;;;;;;;31.13;2.90;;;;;;;24.17;41.90;99500.28;7311370;19;131394;-37
2022/05/13 00:55:05;;;;;;;29.03;2.87;;;;;;;24.14;41.84;99502.38;7311377;19;153210;-40
2022/05/13 00:57:35;;;;;;;35.70;3.15;;;;;;;24.15;41.74;99510.09;7312183;19;130768;-40
2022/05/13 01:00:02;;;;;;;21.38;2.00;;;;;;;24.19;41.35;99503.56;7311926;19;130974;-39
2022/05/13 01:02:27;;;;;;;21.30;1.98;;;;;;;24.17;41.87;99495.03;7313223;19;128981;-39
2022/05/13 01:04:53;;;;;;;17.43;1.63;;;;;;;24.15;41.28;99496.97;7311482;19;154177;-40
2022/05/13 01:07:19;;;;;;;28.90;2.42;;;;;;;24.09;41.61;99497.63;7311243;19;130129;-38
2022/05/13 01:09:50;;;;;;;31.98;3.08;;;;;;;24.18;41.57;99501.91;7310431;19;159951;-41
2022/05/13 01:12:21;;;;;;;24.65;2.25;;;;;;;24.17;41.19;99497.66;7311942;19;131124;-40
2022/05/13 01:14:51;;;;;;;38.42;3.35;;;;;;;24.06;41.41;99487.44;7311189;19;129180;-39
2022/05/13 01:20:15;;;;;;;33.00;3.22;;;;;;;24.16;41.68;99509.13;7312617;19;129238;-39
2022/05/13 01:22:44;;;;;;;31.58;2.92;;;;;;;24.23;42.10;99493.53;7313427;19;129493;-40
2022/05/13 01:25:13;;;;;;;23.17;2.13;;;;;;;24.04;41.14;99481.50;7311267;19;129260;-39
2022/05/13 01:27:41;;;;;;;35.25;3.03;;;;;;;24.14;41.60;99495.34;7310601;19;130397;-40
2022/05/13 01:30:07;;;;;;;28.50;2.80;;;;;;;24.11;41.38;99500.09;7312021;19;130314;-39
2022/05/13 01:32:33;;;;;;;33.70;3.27;;;;;;;24.21;41.77;99498.97;7311795;19;129320;-39
2022/05/13 01:34:58;;;;;;;27.93;2.63;;;;;;;24.16;42.05;99501.22;7310273;19;154221;-37
2022/05/13 01:37:23;;;;;;;32.30;2.53;;;;;;;24.14;41.83;99495.34;7312125;19;158381;-39
2022/05/13 01:39:48;;;;;;;42.78;3.53;;;;;;;24.14;41.62;99497.97;7311083;19;130821;-39
2022/05/13 01:42:14;;;;;;;30.37;2.77;;;;;;;24.20;41.79;99499.94;7310473;19;154430;-40
2022/05/13 01:44:39;;;;;;;20.52;1.85;;;;;;;24.15;41.88;99498.78;7308488;19;152647;-37
2022/05/13 01:47:04;;;;;;;25.15;2.65;;;;;;;24.19;41.27;99500.09;7308202;19;157845;-39
2022/05/13 01:49:29;;;;;;;28.38;2.58;;;;;;;24.20;41.30;99507.84;7309745;19;130955;-39
2022/05/13 01:51:55;;;;;;;23.10;2.17;;;;;;;24.17;41.97;99500.28;7309909;19;144784;-40
2022/05/13 01:54:20;;;;;;;43.05;3.75;;;;;;;24.20;41.63;99499.13;7310212;19;128851;-39
2022/05/13 01:56:45;;;;;;;25.30;2.33;;;;;;;24.16;41.09;99492.56;7307207;19;158328;-39
2022/05/13 01:59:11;;;;;;;28.73;2.77;;;;;;;24.16;41.56;99489.94;7310054;19;130274;-39
2022/05/13 02:01:36;;;;;;;26.80;2.53;;;;;;;24.15;41.45;99489.09;7309464;19;155389;-39
2022/05/13 02:04:01;;;;;;;39.57;3.50;;;;;;;24.16;41.05;99492.56;7310742;19;154661;-39
2022/05/13 02:06:28;;;;;;;45.72;3.75;;;;;;;24.10;41.85;99491.38;7307406;19;138811;-38
2022/05/13 02:08:55;;;;;;;;;;;;;;;24.14;41.33;99489.25;7311980;19;131138;-40
2022/05/13 02:11:21;;;;;;;30.50;2.72;;;;;;;24.17;41.69;99488.94;7310858;19;131157;-39
2022/05/13 02:13:47;;;;;;;;;;;;;;;24.13;41.21;99488.41;7311893;19;129138;-40
2022/05/13 02:16:13;;;;;;;22.57;2.17;;;;;;;24.13;42.06;99490.25;7306033;19;131028;-37
2022/05/13 02:18:39;;;;;;;20.20;1.90;;;;;;;24.14;41.97;99495.34;7310877;19;131004;-37
2022/05/13 02:21:04;;;;;;;14.70;1.50;;;;;;;24.12;41.84;99491.22;7310324;19;129077;-38
2022/05/13 02:23:30;;;;;;;32.77;2.80;;;;;;;24.18;41.79;99485.34;7309717;19;154061;-39
2022/05/13 02:26:04;;;;;;;43.10;3.72;;;;;;;24.22;41.84;99481.41;7308058;19;131292;-39
2022/05/13 02:28:30;;;;;;;21.10;1.98;;;;;;;24.21;41.68;99480.56;7311425;19;131430;-39
2022/05/13 02:30:55;;;;;;;24.67;2.43;;;;;;;24.21;41.82;99479.75;7310996;19;130393;-38
2022/05/13 02:33:21;;;;;;;23.45;2.08;;;;;;;24.25;41.89;99481.91;7310264;19;131263;-39
2022/05/13 02:35:47;;;;;;;35.00;2.90;;;;;;;24.23;41.53;99483.03;7308899;19;129442;-39
2022/05/13 02:38:14;;;;;;;30.60;2.80;;;;;;;24.29;42.03;99478.00;7308878;19;130383;-38
2022/05/13 02:43:23;;;;;;;34.22;3.13;;;;;;;24.21;41.46;99480.56;7309364;19;130335;-39
2022/05/13 02:45:48;;;;;;;20.27;1.73;;;;;;;24.22;41.55;99471.72;7307013;19;157434;-39
2022/05/13 02:48:14;;;;;;;37.83;3.38;;;;;;;24.27;41.22;99472.06;7305715;19;158061;-40
2022/05/13 02:50:39;;;;;;;18.98;1.75;;;;;;;24.22;41.77;99470.88;7310470;19;129122;-40
2022/05/13 02:53:05;;;;;;;28.93;2.77;;;;;;;24.23;40.99;99475.97;7307684;19;154890;-41
2022/05/13 02:55:31;;;;;;;38.23;3.73;;;;;;;24.24;41.72;99469.75;7307124;19;130750;-40
2022/05/13 02:57:56;;;;;;;39.70;3.97;;;;;;;24.20;41.92;99464.97;7307464;19;159533;-40
2022/05/13 03:00:21;;;;;;;44.43;3.73;;;;;;;24.21;41.25;99472.69;7307189;19;155402;-38
2022/05/13 03:02:47;;;;;;;6.43;0.87;;;;;;;24.13;41.37;99456.91;7309524;19;129213;-39
2022/05/13 03:05:12;;;;;;;27.60;2.40;;;;;;;24.25;42.21;99470.56;7307028;19;148963;-39
2022/05/13 03:07:37;;;;;;;24.57;2.27;;;;;;;24.21;42.10;99459.53;7309104;19;129575;-40
2022/05/13 03:10:05;;;;;;;37.57;3.77;;;;;;;24.31;41.66;99464.69;7314963;19;128926;-39
2022/05/13 03:12:31;;;;;;;44.00;3.85;;;;;;;24.30;41.35;99463.84;7314517;19;129646;-41
2022/05/13 03:14:56;;;;;;;35.13;2.97;;;;;;;24.20;41.88;99463.16;7315269;19;129531;-36
2022/05/13 03:17:21;;;;;;;22.60;1.97;;;;;;;24.16;41.63;99456.56;7315350;19;153619;-39
2022/05/13 03:19:46;;;;;;;37.37;3.27;;;;;;;24.12;41.98;99450.00;7315456;19;128989;-39
2022/05/13 03:22:12;;;;;;;29.70;2.43;;;;;;;24.26;41.97;99467.78;7315097;19;153911;-40
2022/05/13 03:24:37;;;;;;;38.40;3.30;;;;;;;24.27;41.81;99474.69;7315682;19;158414;-39
2022/05/13 03:27:04;;;;;;;18.43;2.13;;;;;;;24.21;41.16;99470.06;7313358;19;129379;-38
2022/05/13 03:29:30;;;;;;;;;;;;;;;24.22;41.99;99470.88;7317681;19;128993;-38
2022/05/13 03:31:55;;;;;;;27.75;2.50;;;;;;;24.26;41.42;99465.16;7314201;19;129184;-39
2022/05/13 03:34:21;;;;;;;16.65;1.58;;;;;;;24.26;41.58;99465.16;7316240;19;129573;-40
2022/05/13 03:36:49;;;;;;;31.65;2.75;;;;;;;24.27;41.12;99458.94;7311536;19;130436;-40
2022/05/13 03:39:14;;;;;;;20.58;1.88;;;;;;;24.25;41.67;99466.16;7315582;19;129608;-38
2022/05/13 03:41:40;;;;;;;32.73;2.83;;;;;;;24.28;41.06;99465.81;7315437;19;129161;-40
2022/05/13 03:44:05;;;;;;;43.73;3.97;;;;;;;24.26;41.67;99462.53;7301899;19;159528;-41
2022/05/13 03:46:30;;;;;;;38.73;3.57;;;;;;;24.23;41.76;99448.88;7295423;19;159429;-38
2022/05/13 03:48:56;;;;;;;26.30;2.60;;;;;;;24.23;41.57;99460.22;7314211;19;149672;-38
2022/05/13 03:51:22;;;;;;;13.73;1.40;;;;;;;24.22;41.91;99455.97;7315162;19;129137;-39
2022/05/13 03:53:47;;;;;;;36.63;2.97;;;;;;;24.17;41.32;99453.00;7314917;19;129529;-42
2022/05/13 03:56:13;;;;;;;52.30;4.65;;;;;;;24.23;41.29;99452.34;7307567;19;145901;-39
2022/05/13 03:58:39;;;;;;;39.90;3.47;;;;;;;24.08;41.54;99443.41;7314602;19;129452;-37
2022/05/13 04:01:04;;;;;;;32.70;3.00;;;;;;;24.19;41.89;99445.78;7314555;19;131520;-39
2022/05/13 04:03:29;;;;;;;15.43;1.50;;;;;;;24.26;41.84;99459.91;7313934;19;158972;-40
2022/05/13 04:08:57;;;;;;;28.50;2.67;;;;;;;24.22;41.95;99445.44;7311457;19;129043;-40
2022/05/13 04:11:23;;;;;;;24.58;2.22;;;;;;;24.25;42.10;99450.38;7313469;19;129595;-38
2022/05/13 04:16:53;;;;;;;34.85;2.92;;;;;;;24.15;41.27;99439.19;7311033;19;129828;-38
2022/05/13 04:19:21;;;;;;;32.30;3.03;;;;;;;24.22;41.60;99453.34;7304387;19;129631;-36
2022/05/13 04:21:47;;;;;;;17.30;1.53;;;;;;;24.12;41.64;99444.75;7312402;19;130000;-38
2022/05/13 04:24:18;;;;;;;32.47;3.20;;;;;;;24.18;41.38;99459.88;7312288;19;129482;-36
2022/05/13 04:26:43;;;;;;;28.60;2.47;;;;;;;24.20;41.53;99465.78;7311435;19;129558;-39
2022/05/13 04:29:09;;;;;;;28.80;2.60;;;;;;;24.26;42.00;99465.16;7311083;19;145163;-41
2022/05/13 04:31:37;;;;;;;20.87;2.03;;;;;;;24.24;41.51;99464.50;7313375;19;129196;-38
2022/05/13 04:34:03;;;;;;;28.42;2.40;;;;;;;24.25;41.19;99463.50;7315006;19;130002;-41
2022/05/13 04:36:29;;;;;;;43.40;3.67;;;;;;;24.23;41.80;99470.72;7312056;19;132033;-39
2022/05/13 04:38:54;;;;;;;29.67;2.70;;;;;;;24.27;41.20;99473.88;7313188;19;129500;-42
2022/05/13 04:44:07;;;;;;;42.75;3.58;;;;;;;24.28;41.50;99472.88;7312314;19;129058;-40
2022/05/13 04:46:32;;;;;;;27.05;2.55;;;;;;;24.22;41.64;99474.34;7312136;19;130126;-38
2022/05/13 04:48:58;;;;;;;31.27;2.80;;;;;;;24.26;41.50;99478.28;7311528;19;144106;-39
2022/05/13 04:51:24;;;;;;;29.43;2.77;;;;;;;24.30;40.95;99474.38;7312441;19;131694;-41
2022/05/13 04:53:53;;;;;;;16.60;1.57;;;;;;;24.30;41.42;99479.63;7314662;19;129455;-37
2022/05/13 04:56:20;;;;;;;31.08;2.90;;;;;;;24.28;41.43;99486.84;7309516;19;130541;-38
2022/05/13 04:58:45;;;;;;;;;;;;;;;24.27;41.52;99485.22;7313534;19;129049;-41
2022/05/13 05:01:12;;;;;;;37.30;3.23;;;;;;;24.32;41.56;99480.28;7310826;19;129785;-38
2022/05/13 05:03:40;;;;;;;24.30;2.28;;;;;;;24.23;41.17;99478.59;7314375;19;130430;-39
2022/05/13 05:06:06;;;;;;;43.03;3.65;;;;;;;24.29;41.56;99478.00;7309477;19;131341;-38
2022/05/13 05:08:31;;;;;;;29.90;2.83;;;;;;;24.24;41.45;99479.44;7309491;19;130452;-40
2022/05/13 05:10:57;;;;;;;38.50;3.30;;;;;;;24.20;41.35;99476.31;7311522;19;129115;-40
2022/05/13 05:13:36;;;;;;;60.10;5.13;;;;;;;24.24;41.45;99475.03;7308253;19;129681;-37
2022/05/13 05:16:02;;;;;;;23.08;2.13;;;;;;;24.23;41.54;99467.28;7309471;19;131876;-40
2022/05/13 05:18:28;;;;;;;51.73;4.50;;;;;;;24.26;41.76;99477.47;7310672;19;129697;-41
2022/05/13 05:20:54;;;;;;;56.70;5.20;;;;;;;24.34;41.33;99480.97;7312466;19;129766;-37
2022/05/13 05:23:23;;;;;;;21.35;1.92;;;;;;;24.14;41.58;99469.06;7313074;19;129745;-37
2022/05/13 05:25:48;;;;;;;28.42;2.83;;;;;;;24.26;41.58;99486.16;7311370;19;130361;-37
2022/05/13 05:28:14;;;;;;;20.03;2.00;;;;;;;24.31;41.83;99481.25;7310891;19;129584;-37
2022/05/13 05:30:41;;;;;;;30.67;2.43;;;;;;;24.29;41.87;99492.94;7313600;19;128957;-38
2022/05/13 05:33:06;;;;;;;30.92;2.67;;;;;;;24.30;41.39;99489.31;7315240;19;131021;-37
2022/05/13 05:35:33;;;;;;;24.30;2.17;;;;;;;24.34;41.10;99486.22;7309009;19;157453;-41
2022/05/13 05:37:58;;;;;;;24.40;2.22;;;;;;;24.26;41.66;99485.38;7314029;19;129921;-41
2022/05/13 05:40:23;;;;;;;30.13;2.65;;;;;;;24.27;41.92;99484.38;7307128;19;154113;-39
2022/05/13 05:42:49;;;;;;;30.97;2.50;;;;;;;24.40;43.41;99472.44;7304484;19;149558;-39
2022/05/13 05:45:16;;;;;;;58.23;4.90;;;;;;;24.60;44.15;99474.75;7306146;19;129204;-38
2022/05/13 05:47:42;;;;;;;15.23;1.80;;;;;;;24.73;44.71;99483.03;7309112;19;128818;-40
2022/05/13 05:50:11;;;;;;;32.40;3.07;;;;;;;24.50;42.88;99480.16;7311259;19;129604;-40
2022/05/13 05:52:36;;;;;;;22.70;2.08;;;;;;;24.30;42.75;99478.78;7313272;19;129131;-41
2022/05/13 05:58:18;;;;;;;30.75;2.70;;;;;;;24.29;41.84;99479.78;7313429;19;130376;-39
2022/05/13 06:00:48;;;;;;;14.52;1.48;;;;;;;24.23;42.23;99475.16;7306372;19;129831;-40
2022/05/13 06:03:15;;;;;;;39.45;3.47;;;;;;;24.28;42.52;99468.44;7309884;19;132753;-40
2022/05/13 06:05:42;;;;;;;10.43;1.27;;;;;;;24.25;42.39;99476.66;7309675;19;130579;-41
2022/05/13 06:08:08;;;;;;;12.93;1.63;;;;;;;24.25;42.22;99476.66;7309543;19;130273;-40
2022/05/13 06:10:38;;;;;;;53.70;4.57;;;;;;;24.21;41.78;99474.50;7308702;19;154171;-40
2022/05/13 06:13:05;;;;;;;43.28;3.88;;;;;;;24.28;42.15;99481.59;7311243;19;130955;-40
2022/05/13 06:15:30;;;;;;;17.35;2.13;;;;;;;24.27;41.83;99489.63;7309609;19;130433;-40
2022/05/13 06:17:56;;;;;;;29.70;3.03;;;;;;;24.31;41.38;99490.97;7312821;19;129422;-39
2022/05/13 06:20:25;;;;;;;21.67;4.30;;;;;;;24.35;42.35;99487.84;7310495;19;128941;-40
2022/05/13 06:22:51;;;;;;;11.35;2.55;;;;;;;24.37;42.87;99485.91;7312508;19;130464;-40
2022/05/13 06:25:19;;;;;;;30.63;4.10;;;;;;;24.37;42.85;99488.53;7309584;19;129412;-38
2022/05/13 06:27:45;;;;;;;18.63;2.58;;;;;;;24.43;42.41;99494.91;7309039;19;129270;-41
2022/05/13 06:30:15;;;;;;;36.53;4.50;;;;;;;24.42;42.54;99486.25;7310769;19;129021;-39
2022/05/13 06:32:41;;;;;;;34.80;3.83;;;;;;;24.36;42.75;99478.19;7309909;19;129152;-41
2022/05/13 06:35:08;;;;;;;32.93;4.03;;;;;;;24.46;42.29;99490.16;7307770;19;129852;-41
2022/05/13 06:37:34;;;;;;;37.45;3.95;;;;;;;24.34;42.20;99473.09;7309794;19;129495;-40
2022/05/13 06:39:59;;;;;;;33.83;3.63;;;;;;;24.38;42.72;99481.44;7310752;19;130392;-39
2022/05/13 06:42:24;;;;;;;34.17;3.55;;;;;;;24.40;42.04;99480.31;7306229;19;158327;-36
2022/05/13 06:44:49;;;;;;;18.35;2.40;;;;;;;24.33;42.27;99478.47;7309899;19;129215;-37
2022/05/13 06:47:15;;;;;;;35.87;3.73;;;;;;;24.40;41.66;99485.56;7307820;19;138362;-40
2022/05/13 06:49:41;;;;;;;24.03;2.63;;;;;;;24.33;41.89;99487.19;7309592;19;129564;-39
2022/05/13 06:52:06;;;;;;;28.03;3.27;;;;;;;24.38;42.23;99482.28;7310409;19;129557;-41
2022/05/13 06:54:31;;;;;;;40.07;4.10;;;;;;;24.32;42.02;99461.91;7308891;19;129584;-40
2022/05/13 06:56:57;;;;;;;16.58;2.15;;;;;;;24.40;42.11;99487.38;7308199;19;154530;-39
2022/05/13 06:59:22;;;;;;;22.97;2.80;;;;;;;24.38;42.13;99490.16;7308963;19;154026;-39
2022/05/13 07:01:48;;;;;;;40.92;4.00;;;;;;;24.41;41.74;99492.47;7309089;19;130503;-38
2022/05/13 07:04:13;;;;;;;21.07;2.60;;;;;;;24.34;42.16;99488.84;7309009;19;131682;-40
2022/05/13 07:06:39;;;;;;;37.53;3.57;;;;;;;24.34;42.49;99485.38;7306757;19;155963;-41
2022/05/13 07:09:05;;;;;;;28.07;3.03;;;;;;;24.36;41.74;99484.22;7309577;19;129780;-40
2022/05/13 07:11:30;;;;;;;18.20;2.63;;;;;;;24.37;41.73;99483.25;7309705;19;129321;-40
2022/05/13 07:13:55;;;;;;;15.13;1.85;;;;;;;24.37;41.55;99485.06;7309016;19;158390;-39
2022/05/13 07:16:21;;;;;;;27.65;3.03;;;;;;;24.31;41.78;99483.88;7304724;19;154030;-41
2022/05/13 07:18:47;;;;;;;33.30;3.17;;;;;;;24.36;41.76;99484.22;7309319;19;128878;-39
2022/05/13 07:21:13;;;;;;;34.03;3.40;;;;;;;24.33;41.94;99484.56;7310367;19;130681;-39
2022/05/13 07:23:38;;;;;;;25.13;2.70;;;;;;;24.32;42.38;99482.91;7308074;19;130284;-41
2022/05/13 07:26:03;;;;;;;27.43;3.23;;;;;;;24.26;41.62;99466.97;7305929;19;153784;-40
2022/05/13 07:28:29;;;;;;;25.53;2.90;;;;;;;24.37;41.73;99478.00;7306039;19;153543;-41
2022/05/13 07:30:54;;;;;;;30.70;3.20;;;;;;;24.36;41.99;99486.84;7307245;19;159272;-37
2022/05/13 07:33:21;;;;;;;34.43;3.00;;;;;;;24.32;41.56;99477.66;7308935;19;129305;-39
2022/05/13 07:35:46;;;;;;;19.10;2.22;;;;;;;24.33;42.34;99475.84;7305615;19;129049;-39
2022/05/13 07:38:12;;;;;;;29.80;2.83;;;;;;;24.31;41.54;99481.25;7307923;19;129605;-41
2022/05/13 07:43:21;;;;;;;29.33;3.03;;;;;;;24.28;42.15;99484.22;7309500;19;130180;-40
2022/05/13 07:45:47;;;;;;;24.30;2.37;;;;;;;24.36;42.08;99478.97;7305665;19;154621;-40
2022/05/13 07:48:13;;;;;;;20.87;2.17;;;;;;;24.37;41.98;99471.91;7306900;19;130352;-40
2022/05/13 07:50:38;;;;;;;20.00;1.90;;;;;;;24.33;41.33;99467.97;7309026;19;129464;-41
2022/05/13 07:53:04;;;;;;;39.13;3.47;;;;;;;24.37;42.01;99470.13;7307866;19;150602;-40
2022/05/13 07:55:29;;;;;;;44.23;4.60;;;;;;;24.38;41.99;99465.66;7310724;19;129989;-40
2022/05/13 07:57:55;;;;;;;39.27;3.83;;;;;;;24.31;42.06;99460.25;7315527;19;129170;-39
2022/05/13 08:00:25;;;;;;;24.60;2.10;;;;;;;24.28;41.49;99447.44;7315230;19;129561;-39
2022/05/13 08:02:52;;;;;;;20.73;2.30;;;;;;;24.38;41.71;99466.50;7316241;19;130642;-41
2022/05/13 08:05:17;;;;;;;29.98;2.92;;;;;;;24.32;41.97;99458.44;7314819;19;129229;-39
2022/05/13 08:07:43;;;;;;;18.30;1.93;;;;;;;24.32;42.12;99450.56;7314416;19;128981;-38
2022/05/13 08:10:09;;;;;;;47.20;4.57;;;;;;;24.28;41.35;99455.31;7314279;19;130746;-39
2022/05/13 08:12:34;;;;;;;39.72;3.70;;;;;;;24.35;42.00;99450.22;7315372;19;130363;-40
2022/05/13 08:14:59;;;;;;;31.63;3.10;;;;;;;24.32;42.11;99455.81;7313580;19;129558;-39
2022/05/13 08:17:25;;;;;;;17.73;1.93;;;;;;;24.35;41.79;99456.31;7314158;19;136088;-40
2022/05/13 08:19:50;;;;;;;21.73;2.20;;;;;;;24.31;41.72;99457.59;7314607;19;131951;-37
2022/05/13 08:22:15;;;;;;;33.20;2.83;;;;;;;24.32;41.70;99469.78;7314462;19;159134;-37
2022/05/13 08:24:41;;;;;;;28.40;2.47;;;;;;;24.33;42.03;99462.69;7313858;19;141191;-37
2022/05/13 08:27:06;;;;;;;31.50;3.37;;;;;;;24.35;41.39;99461.56;7313713;19;129024;-37
2022/05/13 08:29:31;;;;;;;21.35;2.20;;;;;;;24.35;41.15;99458.94;7313410;19;158762;-37
2022/05/13 08:31:56;;;;;;;28.98;2.80;;;;;;;24.33;41.80;99463.53;7314168;19;158909;-37
2022/05/13 08:34:22;;;;;;;20.30;2.23;;;;;;;24.30;41.26;99468.28;7313815;19;154415;-41
2022/05/13 08:36:48;;;;;;;7.63;1.10;;;;;;;24.34;41.86;99465.19;7315004;19;129418;-37
2022/05/13 08:39:14;;;;;;;;;;;;;;;24.32;41.82;99471.56;7314303;19;130109;-41
2022/05/13 08:42:00;;;;;;;38.23;3.30;;;;;;;24.31;41.23;99476.00;7313570;19;158770;-38
2022/05/13 08:44:26;;;;;;;14.25;1.50;;;;;;;24.34;41.50;99478.34;7313380;19;129123;-37
2022/05/13 08:47:09;;;;;;;35.70;3.10;;;;;;;24.36;41.95;99472.91;7313293;19;129243;-38
2022/05/13 08:49:44;;;;;;;28.65;2.63;;;;;;;24.33;41.22;99468.78;7313969;19;129639;-40
2022/05/13 08:55:32;;;;;;;38.03;3.67;;;;;;;24.31;42.16;99460.25;7312430;19;129234;-37
2022/05/13 08:58:01;;;;;;;19.80;2.03;;;;;;;24.31;41.39;99470.75;7314189;19;130225;-37
2022/05/13 09:00:32;;;;;;;44.42;3.85;;;;;;;24.33;41.24;99463.53;7312632;19;129452;-36
2022/05/13 09:03:05;;;;;;;21.20;2.05;;;;;;;24.35;41.57;99466.00;7312567;19;129195;-40
2022/05/13 09:06:05;;;;;;;41.47;3.97;;;;;;;24.31;41.48;99475.19;7311406;19;128858;-37
2022/05/13 09:08:32;;;;;;;28.75;2.40;;;;;;;24.36;41.35;99478.97;7309735;19;128958;-37
2022/05/13 09:11:00;;;;;;;24.08;2.50;;;;;;;24.33;41.16;99468.78;7312529;19;130993;-40
2022/05/13 09:13:49;;;;;;;16.00;1.65;;;;;;;24.36;41.15;99472.91;7312377;19;158240;-37
2022/05/13 09:16:21;;;;;;;31.73;3.17;;;;;;;24.29;41.60;99478.00;7309761;19;129033;-37
2022/05/13 09:19:01;;;;;;;35.92;3.47;;;;;;;24.31;40.77;99478.63;7312184;19;128979;-37
2022/05/13 09:21:27;;;;;;;23.40;2.45;;;;;;;24.26;41.36;99466.97;7312936;19;129388;-35
2022/05/13 09:23:52;;;;;;;26.57;2.20;;;;;;;24.33;41.69;99468.78;7313737;19;130613;-37
2022/05/13 09:26:21;;;;;;;27.00;2.63;;;;;;;24.33;41.11;99458.28;7309465;19;149449;-39
2022/05/13 09:29:13;;;;;;;30.35;2.72;;;;;;;24.34;41.76;99470.44;7310948;19;129298;-36
2022/05/13 09:31:41;;;;;;;24.17;2.40;;;;;;;24.34;41.45;99465.19;7312515;19;130356;-38
2022/05/13 09:34:39;;;;;;;30.52;2.92;;;;;;;24.31;41.74;99465.50;7312650;19;129218;-40
2022/05/13 09:37:20;;;;;;;23.10;2.25;;;;;;;24.31;41.49;99469.94;7310350;19;129039;-41
2022/05/13 09:39:48;;;;;;;35.83;2.85;;;;;;;24.35;42.02;99476.50;7312949;19;129269;-40
2022/05/13 09:42:34;;;;;;;42.05;3.70;;;;;;;24.36;41.27;99476.34;7310549;19;129222;-38
2022/05/13 09:45:28;;;;;;;25.10;2.33;;;;;;;24.30;41.04;99471.75;7311841;19;129306;-38
2022/05/13 09:48:05;;;;;;;12.98;1.45;;;;;;;24.21;41.07;99449.03;7310716;19;129149;-40
2022/05/13 09:50:38;;;;;;;44.42;3.80;;;;;;;24.33;41.42;99474.03;7312601;19;128798;-38
2022/05/13 09:53:20;;;;;;;23.42;2.47;;;;;;;24.30;41.18;99469.13;7312109;19;131102;-38
2022/05/13 09:55:47;;;;;;;15.20;1.38;;;;;;;24.26;41.76;99457.25;7310064;19;129673;-38
2022/05/13 09:58:26;;;;;;;24.75;2.35;;;;;;;24.26;41.74;99452.00;7311497;19;128926;-39
2022/05/13 10:00:55;;;;;;;21.50;2.15;;;;;;;24.31;41.47;99454.97;7312493;19;128828;-38
2022/05/13 10:03:24;;;;;;;25.92;2.45;;;;;;;24.39;41.64;99452.38;7312883;19;129154;-38
2022/05/13 10:05:53;;;;;;;23.83;2.15;;;;;;;24.37;41.52;99451.72;7309908;19;129197;-38
2022/05/13 10:08:25;;;;;;;37.13;3.10;;;;;;;24.27;41.17;99448.41;7310286;19;129312;-41
2022/05/13 10:14:00;;;;;;;23.43;2.00;;;;;;;24.28;41.08;99457.94;7312757;19;129401;-39
2022/05/13 10:16:44;;;;;;;22.67;1.98;;;;;;;24.30;41.13;99461.22;7309277;19;130887;-38
2022/05/13 10:19:09;;;;;;;27.58;2.58;;;;;;;24.33;41.48;99454.81;7310904;19;129552;-39
2022/05/13 10:21:42;;;;;;;26.20;2.50;;;;;;;24.36;41.40;99457.16;7312639;19;129611;-37
2022/05/13 10:24:24;;;;;;;24.60;2.33;;;;;;;24.31;41.09;99464.69;7312113;19;129070;-37
2022/05/13 10:26:50;;;;;;;31.35;2.38;;;;;;;24.35;41.77;99471.25;7311924;19;131751;-40
2022/05/13 10:29:39;;;;;;;19.43;1.93;;;;;;;24.33;41.33;99465.31;7310291;19;133159;-37
2022/05/13 10:32:15;;;;;;;25.33;2.50;;;;;;;24.25;41.63;99450.38;7311020;19;128880;-38
2022/05/13 10:34:48;;;;;;;24.65;2.20;;;;;;;24.30;41.73;99445.47;7311355;19;129350;-38
2022/05/13 10:37:33;;;;;;;32.60;2.72;;;;;;;24.35;41.29;99460.75;7311764;19;129731;-37
2022/05/13 10:40:02;;;;;;;24.33;2.53;;;;;;;24.27;41.61;99458.94;7312727;19;131066;-37
2022/05/13 10:42:45;;;;;;;30.55;2.75;;;;;;;24.36;42.18;99450.06;7311164;19;129188;-40
2022/05/13 10:45:20;;;;;;;12.80;1.40;;;;;;;24.38;41.70;99447.28;7310179;19;129508;-39
2022/05/13 10:47:55;;;;;;;22.48;2.00;;;;;;;24.35;41.55;99450.22;7310064;19;129806;-37
2022/05/13 10:50:25;;;;;;;30.20;2.35;;;;;;;24.31;41.81;99444.47;7311452;19;129474;-40
2022/05/13 10:53:27;;;;;;;20.65;1.92;;;;;;;24.27;41.67;99435.28;7312441;19;128772;-43
2022/05/13 10:56:16;;;;;;;25.95;2.35;;;;;;;24.32;41.64;99440.03;7308456;19;129268;-39
2022/05/13 10:59:21;;;;;;;21.80;2.10;;;;;;;24.35;41.52;99439.72;7310563;19;129184;-38
2022/05/13 11:01:55;;;;;;;24.60;2.28;;;;;;;24.35;41.45;99435.28;7308941;19;129592;-40
2022/05/13 11:04:36;;;;;;;23.50;1.98;;;;;;;24.32;41.63;99435.63;7312401;19;129441;-37
2022/05/13 11:07:25;;;;;;;15.27;1.75;;;;;;;24.32;41.15;99430.38;7308577;19;130795;-39
2022/05/13 11:10:08;;;;;;;32.38;2.85;;;;;;;24.28;41.25;99434.28;7310293;19;129309;-40
2022/05/13 11:12:52;;;;;;;19.77;1.80;;;;;;;24.35;41.49;99432.66;7310210;19;129117;-38
2022/05/13 11:15:47;;;;;;;36.35;3.05;;;;;;;24.34;41.61;99438.09;7309333;19;128727;-38
2022/05/13 11:18:36;;;;;;;35.17;3.00;;;;;;;24.33;41.54;99429.38;7309699;19;129209;-38
2022/05/13 11:21:35;;;;;;;27.73;2.58;;;;;;;24.34;41.44;99423.16;7310257;19;129706;-37
2022/05/13 11:27:27;;;;;;;25.73;2.20;;;;;;;24.36;41.64;99429.03;7307118;19;130409;-40
2022/05/13 11:30:02;;;;;;;32.75;2.72;;;;;;;24.39;41.41;99428.72;7313611;19;130356;-40
2022/05/13 11:32:42;;;;;;;4.93;0.70;;;;;;;24.35;41.21;99424.78;7316559;19;130343;-39
2022/05/13 11:35:28;;;;;;;45.25;3.65;;;;;;;24.30;41.50;99427.06;7314577;19;129274;-39
2022/05/13 11:37:59;;;;;;;17.05;1.58;;;;;;;24.30;41.52;99424.44;7317597;19;129220;-39
2022/05/13 11:40:45;;;;;;;33.38;2.85;;;;;;;24.38;41.15;99427.09;7314720;19;129089;-39
2022/05/13 11:43:21;;;;;;;27.70;2.58;;;;;;;24.29;41.37;99414.94;7316187;19;129574;-39
2022/05/13 11:45:56;;;;;;;27.13;2.10;;;;;;;24.32;41.61;99419.88;7313875;19;129480;-38
2022/05/13 11:48:27;;;;;;;26.10;2.58;;;;;;;24.35;41.79;99414.28;7314255;19;153908;-39
2022/05/13 11:51:20;;;;;;;24.17;1.98;;;;;;;24.36;41.52;99415.09;7316245;19;129305;-38
2022/05/13 11:54:00;;;;;;;16.98;1.48;;;;;;;24.36;41.03;99415.91;7314475;19;129428;-39
2022/05/13 11:56:29;;;;;;;21.55;1.83;;;;;;;24.37;41.74;99417.56;7311730;19;129333;-39
2022/05/13 11:59:11;;;;;;;17.65;1.52;;;;;;;24.36;41.45;99421.16;7316226;19;129513;-37